sensor_id;sensor_type;location;lat;lon;timestamp;P1;durP1;ratioP1;P2;durP2;ratioP2
71959;SDS011;59832;51.146;14.024;2022-12-05T00:00:57;50.75;;;25.75;;
71959;SDS011;59832;51.146;14.024;2022-12-05T00:03:25;47.53;;;25.05;;
71959;SDS011;59832;51.146;14.024;2022-12-05T00:05:52;46.88;;;23.83;;
71959;SDS011;59832;51.146;14.024;2022-12-05T00:08:18;49.95;;;24.55;;
71959;SDS011;59832;51.146;14.024;2022-12-05T00:10:44;47.35;;;24.33;;
71959;SDS011;59832;51.146;14.024;2022-12-05T00:13:11;50.28;;;25.70;;
71959;SDS011;59832;51.146;14.024;2022-12-05T00:15:38;47.78;;;25.08;;
71959;SDS011;59832;51.146;14.024;2022-12-05T00:18:06;52.72;;;26.45;;
71959;SDS011;59832;51.146;14.024;2022-12-05T00:20:32;50.83;;;26.77;;
71959;SDS011;59832;51.146;14.024;2022-12-05T00:22:59;49.15;;;25.50;;
71959;SDS011;59832;51.146;14.024;2022-12-05T00:25:26;49.40;;;24.73;;
71959;SDS011;59832;51.146;14.024;2022-12-05T00:27:52;56.25;;;26.65;;
71959;SDS011;59832;51.146;14.024;2022-12-05T00:30:19;52.65;;;26.58;;
71959;SDS011;59832;51.146;14.024;2022-12-05T00:32:45;57.05;;;27.95;;
71959;SDS011;59832;51.146;14.024;2022-12-05T00:35:12;55.88;;;26.33;;
71959;SDS011;59832;51.146;14.024;2022-12-05T00:37:38;57.30;;;27.75;;
71959;SDS011;59832;51.146;14.024;2022-12-05T00:40:05;58.90;;;27.63;;
71959;SDS011;59832;51.146;14.024;2022-12-05T00:42:32;53.03;;;27.45;;
71959;SDS011;59832;51.146;14.024;2022-12-05T00:44:58;61.47;;;28.25;;
71959;SDS011;59832;51.146;14.024;2022-12-05T00:47:24;54.83;;;25.95;;
71959;SDS011;59832;51.146;14.024;2022-12-05T00:49:51;54.80;;;26.95;;
71959;SDS011;59832;51.146;14.024;2022-12-05T00:52:17;55.10;;;27.95;;
71959;SDS011;59832;51.146;14.024;2022-12-05T00:54:44;55.92;;;27.75;;
71959;SDS011;59832;51.146;14.024;2022-12-05T00:57:10;52.20;;;26.20;;
71959;SDS011;59832;51.146;14.024;2022-12-05T00:59:37;58.90;;;27.70;;
71959;SDS011;59832;51.146;14.024;2022-12-05T01:02:03;55.10;;;26.98;;
71959;SDS011;59832;51.146;14.024;2022-12-05T01:04:30;54.50;;;27.27;;
71959;SDS011;59832;51.146;14.024;2022-12-05T01:06:56;59.90;;;29.40;;
71959;SDS011;59832;51.146;14.024;2022-12-05T01:09:23;60.72;;;27.35;;
71959;SDS011;59832;51.146;14.024;2022-12-05T01:11:50;58.47;;;28.17;;
71959;SDS011;59832;51.146;14.024;2022-12-05T01:14:19;67.53;;;29.33;;
71959;SDS011;59832;51.146;14.024;2022-12-05T01:16:47;61.85;;;28.52;;
71959;SDS011;59832;51.146;14.024;2022-12-05T01:19:17;69.10;;;29.17;;
71959;SDS011;59832;51.146;14.024;2022-12-05T01:21:47;62.17;;;28.55;;
71959;SDS011;59832;51.146;14.024;2022-12-05T01:24:14;62.30;;;29.70;;
71959;SDS011;59832;51.146;14.024;2022-12-05T01:26:42;64.35;;;29.10;;
71959;SDS011;59832;51.146;14.024;2022-12-05T01:29:09;63.40;;;30.10;;
71959;SDS011;59832;51.146;14.024;2022-12-05T01:31:38;63.75;;;29.35;;
71959;SDS011;59832;51.146;14.024;2022-12-05T01:34:06;65.80;;;29.83;;
71959;SDS011;59832;51.146;14.024;2022-12-05T01:36:35;72.38;;;30.17;;
71959;SDS011;59832;51.146;14.024;2022-12-05T01:39:01;67.93;;;30.37;;
71959;SDS011;59832;51.146;14.024;2022-12-05T01:41:30;70.82;;;30.10;;
71959;SDS011;59832;51.146;14.024;2022-12-05T01:46:53;63.72;;;29.67;;
71959;SDS011;59832;51.146;14.024;2022-12-05T01:49:22;62.85;;;29.05;;
71959;SDS011;59832;51.146;14.024;2022-12-05T01:51:54;65.70;;;30.60;;
71959;SDS011;59832;51.146;14.024;2022-12-05T01:54:24;61.00;;;28.90;;
71959;SDS011;59832;51.146;14.024;2022-12-05T01:56:52;62.17;;;29.52;;
71959;SDS011;59832;51.146;14.024;2022-12-05T01:59:32;71.07;;;31.42;;
71959;SDS011;59832;51.146;14.024;2022-12-05T02:02:01;60.35;;;29.35;;
71959;SDS011;59832;51.146;14.024;2022-12-05T02:06:55;63.53;;;28.65;;
71959;SDS011;59832;51.146;14.024;2022-12-05T02:09:22;60.17;;;27.27;;
71959;SDS011;59832;51.146;14.024;2022-12-05T02:11:50;68.35;;;29.63;;
71959;SDS011;59832;51.146;14.024;2022-12-05T02:17:42;62.65;;;28.33;;
71959;SDS011;59832;51.146;14.024;2022-12-05T02:20:29;61.42;;;29.35;;
71959;SDS011;59832;51.146;14.024;2022-12-05T02:25:51;56.05;;;27.50;;
71959;SDS011;59832;51.146;14.024;2022-12-05T02:31:26;54.35;;;26.55;;
71959;SDS011;59832;51.146;14.024;2022-12-05T02:37:26;52.90;;;25.52;;
71959;SDS011;59832;51.146;14.024;2022-12-05T02:42:35;57.60;;;26.15;;
71959;SDS011;59832;51.146;14.024;2022-12-05T02:45:09;61.25;;;27.02;;
71959;SDS011;59832;51.146;14.024;2022-12-05T02:47:41;54.35;;;26.92;;
71959;SDS011;59832;51.146;14.024;2022-12-05T02:50:13;60.50;;;26.52;;
71959;SDS011;59832;51.146;14.024;2022-12-05T02:52:46;58.00;;;25.90;;
71959;SDS011;59832;51.146;14.024;2022-12-05T02:55:14;60.63;;;27.60;;
71959;SDS011;59832;51.146;14.024;2022-12-05T02:57:44;55.88;;;26.38;;
71959;SDS011;59832;51.146;14.024;2022-12-05T03:00:15;55.22;;;26.02;;
71959;SDS011;59832;51.146;14.024;2022-12-05T03:02:42;57.38;;;26.23;;
71959;SDS011;59832;51.146;14.024;2022-12-05T03:05:31;56.33;;;27.05;;
71959;SDS011;59832;51.146;14.024;2022-12-05T03:08:11;51.80;;;24.67;;
71959;SDS011;59832;51.146;14.024;2022-12-05T03:10:43;52.88;;;25.15;;
71959;SDS011;59832;51.146;14.024;2022-12-05T03:13:13;50.22;;;24.08;;
71959;SDS011;59832;51.146;14.024;2022-12-05T03:15:48;58.70;;;26.27;;
71959;SDS011;59832;51.146;14.024;2022-12-05T03:18:23;48.78;;;24.20;;
71959;SDS011;59832;51.146;14.024;2022-12-05T03:21:07;53.05;;;25.05;;
71959;SDS011;59832;51.146;14.024;2022-12-05T03:23:47;51.92;;;24.20;;
71959;SDS011;59832;51.146;14.024;2022-12-05T03:37:46;48.33;;;23.83;;
71959;SDS011;59832;51.146;14.024;2022-12-05T03:40:22;42.75;;;22.55;;
71959;SDS011;59832;51.146;14.024;2022-12-05T03:43:00;41.40;;;21.92;;
71959;SDS011;59832;51.146;14.024;2022-12-05T03:45:55;40.72;;;21.27;;
71959;SDS011;59832;51.146;14.024;2022-12-05T03:51:15;39.70;;;20.88;;
71959;SDS011;59832;51.146;14.024;2022-12-05T03:53:45;46.35;;;22.00;;
71959;SDS011;59832;51.146;14.024;2022-12-05T03:56:35;43.60;;;21.05;;
71959;SDS011;59832;51.146;14.024;2022-12-05T03:59:09;37.92;;;19.17;;
71959;SDS011;59832;51.146;14.024;2022-12-05T04:01:59;39.28;;;19.60;;
71959;SDS011;59832;51.146;14.024;2022-12-05T04:04:37;38.90;;;19.38;;
71959;SDS011;59832;51.146;14.024;2022-12-05T04:07:09;34.92;;;18.67;;
71959;SDS011;59832;51.146;14.024;2022-12-05T04:09:39;33.50;;;17.92;;
71959;SDS011;59832;51.146;14.024;2022-12-05T04:12:13;31.70;;;18.30;;
71959;SDS011;59832;51.146;14.024;2022-12-05T04:14:43;37.30;;;19.10;;
71959;SDS011;59832;51.146;14.024;2022-12-05T04:20:08;26.90;;;15.88;;
71959;SDS011;59832;51.146;14.024;2022-12-05T04:22:56;24.80;;;13.20;;
71959;SDS011;59832;51.146;14.024;2022-12-05T04:25:24;22.55;;;12.88;;
71959;SDS011;59832;51.146;14.024;2022-12-05T04:30:42;17.85;;;12.35;;
71959;SDS011;59832;51.146;14.024;2022-12-05T04:33:14;18.20;;;11.90;;
71959;SDS011;59832;51.146;14.024;2022-12-05T04:38:22;15.68;;;10.80;;
71959;SDS011;59832;51.146;14.024;2022-12-05T04:40:53;17.38;;;11.18;;
71959;SDS011;59832;51.146;14.024;2022-12-05T04:43:24;15.40;;;11.25;;
71959;SDS011;59832;51.146;14.024;2022-12-05T04:45:51;17.80;;;11.07;;
71959;SDS011;59832;51.146;14.024;2022-12-05T04:48:21;14.88;;;10.40;;
71959;SDS011;59832;51.146;14.024;2022-12-05T04:50:51;16.02;;;10.35;;
71959;SDS011;59832;51.146;14.024;2022-12-05T04:53:20;14.38;;;10.38;;
71959;SDS011;59832;51.146;14.024;2022-12-05T04:55:51;15.80;;;10.77;;
71959;SDS011;59832;51.146;14.024;2022-12-05T04:58:21;14.63;;;10.57;;
71959;SDS011;59832;51.146;14.024;2022-12-05T05:01:13;14.75;;;10.43;;
71959;SDS011;59832;51.146;14.024;2022-12-05T05:03:47;14.52;;;9.82;;
71959;SDS011;59832;51.146;14.024;2022-12-05T05:06:18;16.38;;;10.40;;
71959;SDS011;59832;51.146;14.024;2022-12-05T05:08:51;12.98;;;9.88;;
71959;SDS011;59832;51.146;14.024;2022-12-05T05:11:20;14.82;;;9.93;;
71959;SDS011;59832;51.146;14.024;2022-12-05T05:13:49;13.38;;;9.63;;
71959;SDS011;59832;51.146;14.024;2022-12-05T05:16:17;14.48;;;9.45;;
71959;SDS011;59832;51.146;14.024;2022-12-05T05:18:46;13.35;;;9.55;;
71959;SDS011;59832;51.146;14.024;2022-12-05T05:21:18;13.88;;;9.70;;
71959;SDS011;59832;51.146;14.024;2022-12-05T05:23:44;12.82;;;9.13;;
71959;SDS011;59832;51.146;14.024;2022-12-05T05:26:11;12.07;;;9.43;;
71959;SDS011;59832;51.146;14.024;2022-12-05T05:28:38;13.67;;;9.87;;
71959;SDS011;59832;51.146;14.024;2022-12-05T05:31:04;19.20;;;15.02;;
71959;SDS011;59832;51.146;14.024;2022-12-05T05:33:32;13.95;;;10.80;;
71959;SDS011;59832;51.146;14.024;2022-12-05T05:36:06;19.45;;;13.25;;
71959;SDS011;59832;51.146;14.024;2022-12-05T05:38:36;22.15;;;15.90;;
71959;SDS011;59832;51.146;14.024;2022-12-05T05:41:03;25.30;;;16.90;;
71959;SDS011;59832;51.146;14.024;2022-12-05T05:45:57;22.23;;;16.83;;
71959;SDS011;59832;51.146;14.024;2022-12-05T05:48:24;21.27;;;15.57;;
71959;SDS011;59832;51.146;14.024;2022-12-05T05:50:50;15.60;;;10.52;;
71959;SDS011;59832;51.146;14.024;2022-12-05T05:53:16;13.27;;;9.70;;
71959;SDS011;59832;51.146;14.024;2022-12-05T05:55:43;12.68;;;9.38;;
71959;SDS011;59832;51.146;14.024;2022-12-05T05:58:09;11.05;;;9.40;;
71959;SDS011;59832;51.146;14.024;2022-12-05T06:00:35;13.88;;;10.10;;
71959;SDS011;59832;51.146;14.024;2022-12-05T06:03:02;14.73;;;9.45;;
71959;SDS011;59832;51.146;14.024;2022-12-05T06:05:28;11.80;;;9.53;;
71959;SDS011;59832;51.146;14.024;2022-12-05T06:07:55;13.55;;;9.82;;
71959;SDS011;59832;51.146;14.024;2022-12-05T06:10:21;18.75;;;10.25;;
71959;SDS011;59832;51.146;14.024;2022-12-05T06:12:48;14.18;;;11.23;;
71959;SDS011;59832;51.146;14.024;2022-12-05T06:15:14;13.00;;;9.88;;
71959;SDS011;59832;51.146;14.024;2022-12-05T06:17:41;14.52;;;9.60;;
71959;SDS011;59832;51.146;14.024;2022-12-05T06:20:07;12.93;;;10.05;;
71959;SDS011;59832;51.146;14.024;2022-12-05T06:22:34;16.50;;;10.48;;
71959;SDS011;59832;51.146;14.024;2022-12-05T06:25:01;13.88;;;10.15;;
71959;SDS011;59832;51.146;14.024;2022-12-05T06:27:28;13.20;;;9.63;;
71959;SDS011;59832;51.146;14.024;2022-12-05T06:29:55;11.85;;;9.07;;
71959;SDS011;59832;51.146;14.024;2022-12-05T06:32:22;12.70;;;9.77;;
71959;SDS011;59832;51.146;14.024;2022-12-05T06:34:48;11.68;;;9.25;;
71959;SDS011;59832;51.146;14.024;2022-12-05T06:37:15;10.88;;;9.43;;
71959;SDS011;59832;51.146;14.024;2022-12-05T06:39:41;13.02;;;9.80;;
71959;SDS011;59832;51.146;14.024;2022-12-05T06:42:08;12.05;;;8.98;;
71959;SDS011;59832;51.146;14.024;2022-12-05T06:44:34;11.00;;;9.23;;
71959;SDS011;59832;51.146;14.024;2022-12-05T06:47:01;12.98;;;9.15;;
71959;SDS011;59832;51.146;14.024;2022-12-05T06:49:28;12.10;;;9.35;;
71959;SDS011;59832;51.146;14.024;2022-12-05T06:52:03;13.95;;;9.75;;
71959;SDS011;59832;51.146;14.024;2022-12-05T06:54:29;13.48;;;10.00;;
71959;SDS011;59832;51.146;14.024;2022-12-05T06:56:56;15.40;;;10.20;;
71959;SDS011;59832;51.146;14.024;2022-12-05T06:59:22;12.18;;;9.65;;
71959;SDS011;59832;51.146;14.024;2022-12-05T07:01:48;14.85;;;10.70;;
71959;SDS011;59832;51.146;14.024;2022-12-05T07:04:16;11.85;;;10.15;;
71959;SDS011;59832;51.146;14.024;2022-12-05T07:06:51;16.15;;;11.38;;
71959;SDS011;59832;51.146;14.024;2022-12-05T07:09:20;12.88;;;9.95;;
71959;SDS011;59832;51.146;14.024;2022-12-05T07:12:09;14.35;;;10.02;;
71959;SDS011;59832;51.146;14.024;2022-12-05T07:14:36;13.55;;;10.10;;
71959;SDS011;59832;51.146;14.024;2022-12-05T07:17:13;15.10;;;10.25;;
71959;SDS011;59832;51.146;14.024;2022-12-05T07:19:39;14.25;;;10.65;;
71959;SDS011;59832;51.146;14.024;2022-12-05T07:22:06;15.13;;;10.23;;
71959;SDS011;59832;51.146;14.024;2022-12-05T07:24:40;14.15;;;9.43;;
71959;SDS011;59832;51.146;14.024;2022-12-05T07:27:06;13.77;;;9.75;;
71959;SDS011;59832;51.146;14.024;2022-12-05T07:29:33;11.32;;;9.60;;
71959;SDS011;59832;51.146;14.024;2022-12-05T07:31:59;14.20;;;9.75;;
71959;SDS011;59832;51.146;14.024;2022-12-05T07:34:27;11.77;;;8.93;;
71959;SDS011;59832;51.146;14.024;2022-12-05T07:36:53;13.20;;;9.85;;
71959;SDS011;59832;51.146;14.024;2022-12-05T07:39:19;12.07;;;9.50;;
71959;SDS011;59832;51.146;14.024;2022-12-05T07:41:46;12.90;;;9.80;;
71959;SDS011;59832;51.146;14.024;2022-12-05T07:44:12;14.13;;;9.55;;
71959;SDS011;59832;51.146;14.024;2022-12-05T07:46:39;14.77;;;10.30;;
71959;SDS011;59832;51.146;14.024;2022-12-05T07:49:06;15.20;;;10.25;;
71959;SDS011;59832;51.146;14.024;2022-12-05T07:51:33;13.20;;;9.90;;
71959;SDS011;59832;51.146;14.024;2022-12-05T07:56:27;14.13;;;10.30;;
71959;SDS011;59832;51.146;14.024;2022-12-05T07:58:53;16.58;;;9.63;;
71959;SDS011;59832;51.146;14.024;2022-12-05T08:01:21;12.63;;;9.43;;
71959;SDS011;59832;51.146;14.024;2022-12-05T08:03:51;15.13;;;9.88;;
71959;SDS011;59832;51.146;14.024;2022-12-05T08:06:24;12.38;;;9.77;;
71959;SDS011;59832;51.146;14.024;2022-12-05T08:08:53;13.48;;;9.88;;
71959;SDS011;59832;51.146;14.024;2022-12-05T08:11:21;15.23;;;10.37;;
71959;SDS011;59832;51.146;14.024;2022-12-05T08:13:49;16.08;;;10.57;;
71959;SDS011;59832;51.146;14.024;2022-12-05T08:16:17;13.77;;;10.27;;
71959;SDS011;59832;51.146;14.024;2022-12-05T08:18:45;15.82;;;10.88;;
71959;SDS011;59832;51.146;14.024;2022-12-05T08:21:13;15.18;;;10.63;;
71959;SDS011;59832;51.146;14.024;2022-12-05T08:23:41;17.17;;;10.70;;
71959;SDS011;59832;51.146;14.024;2022-12-05T08:28:46;14.27;;;10.35;;
71959;SDS011;59832;51.146;14.024;2022-12-05T08:31:16;13.75;;;10.35;;
71959;SDS011;59832;51.146;14.024;2022-12-05T08:33:43;13.77;;;10.30;;
71959;SDS011;59832;51.146;14.024;2022-12-05T08:36:11;18.85;;;11.13;;
71959;SDS011;59832;51.146;14.024;2022-12-05T08:38:41;17.08;;;10.55;;
71959;SDS011;59832;51.146;14.024;2022-12-05T08:41:12;13.27;;;10.38;;
71959;SDS011;59832;51.146;14.024;2022-12-05T08:43:40;14.52;;;10.23;;
71959;SDS011;59832;51.146;14.024;2022-12-05T08:46:07;17.17;;;10.98;;
71959;SDS011;59832;51.146;14.024;2022-12-05T08:48:34;16.83;;;11.27;;
71959;SDS011;59832;51.146;14.024;2022-12-05T08:51:04;18.13;;;11.77;;
71959;SDS011;59832;51.146;14.024;2022-12-05T08:53:33;18.48;;;11.65;;
71959;SDS011;59832;51.146;14.024;2022-12-05T08:56:09;15.70;;;10.73;;
71959;SDS011;59832;51.146;14.024;2022-12-05T08:58:36;18.48;;;11.93;;
71959;SDS011;59832;51.146;14.024;2022-12-05T09:01:06;17.38;;;11.20;;
71959;SDS011;59832;51.146;14.024;2022-12-05T09:03:35;15.00;;;10.80;;
71959;SDS011;59832;51.146;14.024;2022-12-05T09:06:20;17.02;;;12.02;;
71959;SDS011;59832;51.146;14.024;2022-12-05T09:08:52;15.82;;;10.90;;
71959;SDS011;59832;51.146;14.024;2022-12-05T09:11:24;17.20;;;10.50;;
71959;SDS011;59832;51.146;14.024;2022-12-05T09:13:52;14.10;;;9.75;;
71959;SDS011;59832;51.146;14.024;2022-12-05T09:16:22;15.35;;;10.18;;
71959;SDS011;59832;51.146;14.024;2022-12-05T09:18:51;16.42;;;10.50;;
71959;SDS011;59832;51.146;14.024;2022-12-05T09:21:19;14.40;;;10.70;;
71959;SDS011;59832;51.146;14.024;2022-12-05T09:23:47;14.23;;;10.35;;
71959;SDS011;59832;51.146;14.024;2022-12-05T09:26:15;12.30;;;8.68;;
71959;SDS011;59832;51.146;14.024;2022-12-05T09:28:44;13.80;;;10.00;;
71959;SDS011;59832;51.146;14.024;2022-12-05T09:31:14;13.25;;;9.63;;
71959;SDS011;59832;51.146;14.024;2022-12-05T09:33:43;14.82;;;9.75;;
71959;SDS011;59832;51.146;14.024;2022-12-05T09:36:14;12.70;;;9.90;;
71959;SDS011;59832;51.146;14.024;2022-12-05T09:38:42;17.30;;;10.35;;
71959;SDS011;59832;51.146;14.024;2022-12-05T09:49:56;17.27;;;11.18;;
71959;SDS011;59832;51.146;14.024;2022-12-05T09:52:27;14.98;;;10.20;;
71959;SDS011;59832;51.146;14.024;2022-12-05T09:55:02;15.05;;;10.77;;
71959;SDS011;59832;51.146;14.024;2022-12-05T09:57:35;15.57;;;10.35;;
71959;SDS011;59832;51.146;14.024;2022-12-05T10:00:05;14.10;;;10.43;;
71959;SDS011;59832;51.146;14.024;2022-12-05T10:05:24;15.32;;;10.93;;
71959;SDS011;59832;51.146;14.024;2022-12-05T10:08:29;14.50;;;9.98;;
71959;SDS011;59832;51.146;14.024;2022-12-05T10:11:17;15.40;;;10.10;;
71959;SDS011;59832;51.146;14.024;2022-12-05T10:14:34;14.43;;;10.73;;
71959;SDS011;59832;51.146;14.024;2022-12-05T10:16:51;14.07;;;9.88;;
71959;SDS011;59832;51.146;14.024;2022-12-05T10:19:34;16.15;;;10.80;;
71959;SDS011;59832;51.146;14.024;2022-12-05T10:24:49;17.50;;;11.18;;
71959;SDS011;59832;51.146;14.024;2022-12-05T10:27:20;17.75;;;11.48;;
71959;SDS011;59832;51.146;14.024;2022-12-05T10:35:24;18.33;;;12.07;;
71959;SDS011;59832;51.146;14.024;2022-12-05T10:38:01;19.45;;;12.65;;
71959;SDS011;59832;51.146;14.024;2022-12-05T10:40:33;17.10;;;12.50;;
71959;SDS011;59832;51.146;14.024;2022-12-05T10:43:04;22.42;;;13.27;;
71959;SDS011;59832;51.146;14.024;2022-12-05T10:45:34;18.65;;;13.40;;
71959;SDS011;59832;51.146;14.024;2022-12-05T10:48:08;21.95;;;14.38;;
71959;SDS011;59832;51.146;14.024;2022-12-05T10:50:37;23.75;;;14.38;;
71959;SDS011;59832;51.146;14.024;2022-12-05T10:53:05;22.77;;;14.35;;
71959;SDS011;59832;51.146;14.024;2022-12-05T10:55:36;27.23;;;14.90;;
71959;SDS011;59832;51.146;14.024;2022-12-05T11:00:44;24.17;;;15.40;;
71959;SDS011;59832;51.146;14.024;2022-12-05T11:03:33;26.30;;;16.83;;
71959;SDS011;59832;51.146;14.024;2022-12-05T11:06:16;29.15;;;15.85;;
71959;SDS011;59832;51.146;14.024;2022-12-05T11:08:50;25.98;;;16.52;;
71959;SDS011;59832;51.146;14.024;2022-12-05T11:11:31;29.52;;;17.05;;
71959;SDS011;59832;51.146;14.024;2022-12-05T11:13:59;29.08;;;15.43;;
71959;SDS011;59832;51.146;14.024;2022-12-05T11:16:32;27.77;;;16.73;;
71959;SDS011;59832;51.146;14.024;2022-12-05T11:21:49;26.40;;;15.35;;
71959;SDS011;59832;51.146;14.024;2022-12-05T11:26:48;31.60;;;16.67;;
71959;SDS011;59832;51.146;14.024;2022-12-05T11:32:02;28.47;;;15.83;;
71959;SDS011;59832;51.146;14.024;2022-12-05T11:37:17;25.67;;;15.10;;
71959;SDS011;59832;51.146;14.024;2022-12-05T11:39:47;26.35;;;15.15;;
71959;SDS011;59832;51.146;14.024;2022-12-05T11:42:21;25.38;;;15.10;;
71959;SDS011;59832;51.146;14.024;2022-12-05T11:53:28;24.08;;;14.52;;
71959;SDS011;59832;51.146;14.024;2022-12-05T11:56:45;24.05;;;14.40;;
71959;SDS011;59832;51.146;14.024;2022-12-05T11:58:57;23.27;;;14.63;;
71959;SDS011;59832;51.146;14.024;2022-12-05T12:04:37;22.75;;;13.93;;
71959;SDS011;59832;51.146;14.024;2022-12-05T12:07:56;22.77;;;13.90;;
71959;SDS011;59832;51.146;14.024;2022-12-05T12:10:50;21.35;;;13.82;;
71959;SDS011;59832;51.146;14.024;2022-12-05T12:30:13;21.08;;;13.57;;
71959;SDS011;59832;51.146;14.024;2022-12-05T12:32:48;26.98;;;14.82;;
71959;SDS011;59832;51.146;14.024;2022-12-05T12:35:38;25.20;;;14.07;;
71959;SDS011;59832;51.146;14.024;2022-12-05T12:49:22;23.33;;;14.48;;
71959;SDS011;59832;51.146;14.024;2022-12-05T12:52:13;22.83;;;13.90;;
71959;SDS011;59832;51.146;14.024;2022-12-05T13:00:31;20.33;;;13.45;;
71959;SDS011;59832;51.146;14.024;2022-12-05T13:03:09;21.98;;;13.07;;
71959;SDS011;59832;51.146;14.024;2022-12-05T13:05:42;19.67;;;12.40;;
71959;SDS011;59832;51.146;14.024;2022-12-05T13:11:01;21.42;;;12.80;;
71959;SDS011;59832;51.146;14.024;2022-12-05T13:13:35;20.88;;;12.57;;
71959;SDS011;59832;51.146;14.024;2022-12-05T13:16:04;18.00;;;11.70;;
71959;SDS011;59832;51.146;14.024;2022-12-05T13:18:33;19.63;;;11.60;;
71959;SDS011;59832;51.146;14.024;2022-12-05T13:21:02;18.45;;;12.02;;
71959;SDS011;59832;51.146;14.024;2022-12-05T13:23:33;19.67;;;12.25;;
71959;SDS011;59832;51.146;14.024;2022-12-05T13:26:09;19.98;;;12.85;;
71959;SDS011;59832;51.146;14.024;2022-12-05T13:28:59;19.33;;;12.63;;
71959;SDS011;59832;51.146;14.024;2022-12-05T13:36:54;23.25;;;13.93;;
71959;SDS011;59832;51.146;14.024;2022-12-05T13:39:41;17.40;;;12.00;;
71959;SDS011;59832;51.146;14.024;2022-12-05T13:42:35;32.03;;;18.30;;
71959;SDS011;59832;51.146;14.024;2022-12-05T13:47:53;23.35;;;15.50;;
71959;SDS011;59832;51.146;14.024;2022-12-05T13:56:00;31.45;;;17.92;;
71959;SDS011;59832;51.146;14.024;2022-12-05T13:58:42;27.77;;;16.00;;
71959;SDS011;59832;51.146;14.024;2022-12-05T14:04:17;35.75;;;21.33;;
71959;SDS011;59832;51.146;14.024;2022-12-05T14:17:30;25.63;;;16.38;;
71959;SDS011;59832;51.146;14.024;2022-12-05T14:20:24;21.00;;;14.90;;
71959;SDS011;59832;51.146;14.024;2022-12-05T14:34:46;19.20;;;13.38;;
71959;SDS011;59832;51.146;14.024;2022-12-05T14:37:23;23.15;;;13.55;;
71959;SDS011;59832;51.146;14.024;2022-12-05T14:39:53;22.92;;;14.95;;
71959;SDS011;59832;51.146;14.024;2022-12-05T14:42:43;20.63;;;14.50;;
71959;SDS011;59832;51.146;14.024;2022-12-05T15:01:33;20.08;;;13.02;;
71959;SDS011;59832;51.146;14.024;2022-12-05T15:09:44;19.08;;;12.75;;
71959;SDS011;59832;51.146;14.024;2022-12-05T15:12:29;19.23;;;12.15;;
71959;SDS011;59832;51.146;14.024;2022-12-05T15:17:42;17.58;;;12.35;;
71959;SDS011;59832;51.146;14.024;2022-12-05T15:26:10;18.88;;;12.48;;
71959;SDS011;59832;51.146;14.024;2022-12-05T15:31:35;18.70;;;12.40;;
71959;SDS011;59832;51.146;14.024;2022-12-05T15:36:53;20.02;;;12.85;;
71959;SDS011;59832;51.146;14.024;2022-12-05T15:39:23;16.13;;;10.18;;
71959;SDS011;59832;51.146;14.024;2022-12-05T15:41:52;18.45;;;11.05;;
71959;SDS011;59832;51.146;14.024;2022-12-05T15:44:19;16.40;;;10.30;;
71959;SDS011;59832;51.146;14.024;2022-12-05T15:46:54;14.38;;;9.90;;
71959;SDS011;59832;51.146;14.024;2022-12-05T15:49:22;12.93;;;9.25;;
71959;SDS011;59832;51.146;14.024;2022-12-05T15:51:51;12.48;;;9.20;;
71959;SDS011;59832;51.146;14.024;2022-12-05T15:54:37;11.70;;;8.98;;
71959;SDS011;59832;51.146;14.024;2022-12-05T16:00:11;12.95;;;9.25;;
71959;SDS011;59832;51.146;14.024;2022-12-05T16:02:45;14.75;;;9.48;;
71959;SDS011;59832;51.146;14.024;2022-12-05T16:05:21;13.90;;;9.15;;
71959;SDS011;59832;51.146;14.024;2022-12-05T16:07:53;14.52;;;9.40;;
71959;SDS011;59832;51.146;14.024;2022-12-05T16:10:20;15.80;;;9.83;;
71959;SDS011;59832;51.146;14.024;2022-12-05T16:12:54;14.02;;;9.73;;
71959;SDS011;59832;51.146;14.024;2022-12-05T16:15:27;11.95;;;8.98;;
71959;SDS011;59832;51.146;14.024;2022-12-05T16:17:54;15.63;;;10.15;;
71959;SDS011;59832;51.146;14.024;2022-12-05T16:20:24;16.67;;;10.23;;
71959;SDS011;59832;51.146;14.024;2022-12-05T16:22:55;14.82;;;10.02;;
71959;SDS011;59832;51.146;14.024;2022-12-05T16:25:27;14.63;;;9.73;;
71959;SDS011;59832;51.146;14.024;2022-12-05T16:27:59;13.52;;;9.75;;
71959;SDS011;59832;51.146;14.024;2022-12-05T16:30:28;13.65;;;9.77;;
71959;SDS011;59832;51.146;14.024;2022-12-05T16:32:57;15.10;;;9.40;;
71959;SDS011;59832;51.146;14.024;2022-12-05T16:35:36;14.48;;;9.93;;
71959;SDS011;59832;51.146;14.024;2022-12-05T16:43:16;14.27;;;9.85;;
71959;SDS011;59832;51.146;14.024;2022-12-05T16:45:51;15.40;;;9.35;;
71959;SDS011;59832;51.146;14.024;2022-12-05T16:48:26;14.10;;;9.38;;
71959;SDS011;59832;51.146;14.024;2022-12-05T16:53:46;16.50;;;9.27;;
71959;SDS011;59832;51.146;14.024;2022-12-05T16:56:15;15.32;;;9.07;;
71959;SDS011;59832;51.146;14.024;2022-12-05T16:58:45;13.68;;;9.23;;
71959;SDS011;59832;51.146;14.024;2022-12-05T17:01:13;12.00;;;8.57;;
71959;SDS011;59832;51.146;14.024;2022-12-05T17:03:43;12.48;;;8.98;;
71959;SDS011;59832;51.146;14.024;2022-12-05T17:06:10;14.98;;;9.73;;
71959;SDS011;59832;51.146;14.024;2022-12-05T17:08:37;15.85;;;9.63;;
71959;SDS011;59832;51.146;14.024;2022-12-05T17:11:04;13.90;;;9.63;;
71959;SDS011;59832;51.146;14.024;2022-12-05T17:13:32;15.88;;;11.48;;
71959;SDS011;59832;51.146;14.024;2022-12-05T17:15:58;16.00;;;10.55;;
71959;SDS011;59832;51.146;14.024;2022-12-05T17:18:25;15.77;;;10.00;;
71959;SDS011;59832;51.146;14.024;2022-12-05T17:20:57;13.82;;;9.50;;
71959;SDS011;59832;51.146;14.024;2022-12-05T17:23:25;12.77;;;8.88;;
71959;SDS011;59832;51.146;14.024;2022-12-05T17:25:52;15.98;;;9.95;;
71959;SDS011;59832;51.146;14.024;2022-12-05T17:28:20;15.35;;;9.95;;
71959;SDS011;59832;51.146;14.024;2022-12-05T17:30:47;16.33;;;9.52;;
71959;SDS011;59832;51.146;14.024;2022-12-05T17:33:14;16.20;;;9.98;;
71959;SDS011;59832;51.146;14.024;2022-12-05T17:35:42;12.02;;;8.75;;
71959;SDS011;59832;51.146;14.024;2022-12-05T17:38:09;13.05;;;9.30;;
71959;SDS011;59832;51.146;14.024;2022-12-05T17:40:38;15.38;;;10.10;;
71959;SDS011;59832;51.146;14.024;2022-12-05T17:43:05;14.75;;;9.98;;
71959;SDS011;59832;51.146;14.024;2022-12-05T17:45:31;15.52;;;10.00;;
71959;SDS011;59832;51.146;14.024;2022-12-05T17:47:58;15.45;;;9.90;;
71959;SDS011;59832;51.146;14.024;2022-12-05T17:50:25;15.27;;;9.32;;
71959;SDS011;59832;51.146;14.024;2022-12-05T17:52:53;15.38;;;9.60;;
71959;SDS011;59832;51.146;14.024;2022-12-05T17:55:24;14.73;;;9.68;;
71959;SDS011;59832;51.146;14.024;2022-12-05T17:57:53;14.27;;;9.43;;
71959;SDS011;59832;51.146;14.024;2022-12-05T18:00:21;15.00;;;9.63;;
71959;SDS011;59832;51.146;14.024;2022-12-05T18:02:49;14.95;;;9.18;;
71959;SDS011;59832;51.146;14.024;2022-12-05T18:05:16;14.43;;;9.73;;
71959;SDS011;59832;51.146;14.024;2022-12-05T18:07:43;14.88;;;10.73;;
71959;SDS011;59832;51.146;14.024;2022-12-05T18:12:38;15.05;;;10.18;;
71959;SDS011;59832;51.146;14.024;2022-12-05T18:15:05;15.57;;;10.77;;
71959;SDS011;59832;51.146;14.024;2022-12-05T18:17:32;20.42;;;11.23;;